sensor_id;sensor_type;location;lat;lon;timestamp;P1;durP1;ratioP1;P2;durP2;ratioP2
8098;SDS011;4092;47.876;9.372;2022-08-19T00:01:24;10.20;;;6.10;;
8098;SDS011;4092;47.876;9.372;2022-08-19T00:03:54;14.10;;;7.57;;
8098;SDS011;4092;47.876;9.372;2022-08-19T00:06:21;14.17;;;6.77;;
8098;SDS011;4092;47.876;9.372;2022-08-19T00:08:49;13.13;;;7.43;;
8098;SDS011;4092;47.876;9.372;2022-08-19T00:11:17;19.07;;;9.10;;
8098;SDS011;4092;47.876;9.372;2022-08-19T00:13:45;13.63;;;9.20;;
8098;SDS011;4092;47.876;9.372;2022-08-19T00:16:13;16.13;;;9.90;;
8098;SDS011;4092;47.876;9.372;2022-08-19T00:18:40;15.53;;;9.67;;
8098;SDS011;4092;47.876;9.372;2022-08-19T00:21:07;12.90;;;8.43;;
8098;SDS011;4092;47.876;9.372;2022-08-19T00:23:35;10.93;;;8.30;;
8098;SDS011;4092;47.876;9.372;2022-08-19T00:26:04;15.47;;;7.90;;
8098;SDS011;4092;47.876;9.372;2022-08-19T00:28:31;11.83;;;7.73;;
8098;SDS011;4092;47.876;9.372;2022-08-19T00:31:00;12.00;;;7.40;;
8098;SDS011;4092;47.876;9.372;2022-08-19T00:33:29;14.37;;;7.80;;
8098;SDS011;4092;47.876;9.372;2022-08-19T00:35:57;9.87;;;7.17;;
8098;SDS011;4092;47.876;9.372;2022-08-19T00:38:24;13.00;;;7.93;;
8098;SDS011;4092;47.876;9.372;2022-08-19T00:40:52;12.30;;;9.13;;
8098;SDS011;4092;47.876;9.372;2022-08-19T00:43:21;14.83;;;8.63;;
8098;SDS011;4092;47.876;9.372;2022-08-19T00:45:50;16.20;;;8.73;;
8098;SDS011;4092;47.876;9.372;2022-08-19T00:48:17;14.13;;;8.83;;
8098;SDS011;4092;47.876;9.372;2022-08-19T00:50:45;16.20;;;9.47;;
8098;SDS011;4092;47.876;9.372;2022-08-19T00:53:15;14.50;;;8.90;;
8098;SDS011;4092;47.876;9.372;2022-08-19T00:55:45;19.40;;;9.97;;
8098;SDS011;4092;47.876;9.372;2022-08-19T00:58:14;14.70;;;9.53;;
8098;SDS011;4092;47.876;9.372;2022-08-19T01:00:51;13.33;;;8.23;;
8098;SDS011;4092;47.876;9.372;2022-08-19T01:03:19;14.80;;;8.37;;
8098;SDS011;4092;47.876;9.372;2022-08-19T01:05:47;11.90;;;9.70;;
8098;SDS011;4092;47.876;9.372;2022-08-19T01:08:17;12.00;;;8.53;;
8098;SDS011;4092;47.876;9.372;2022-08-19T01:10:47;13.73;;;8.43;;
8098;SDS011;4092;47.876;9.372;2022-08-19T01:13:17;16.23;;;9.17;;
8098;SDS011;4092;47.876;9.372;2022-08-19T01:15:47;15.50;;;8.47;;
8098;SDS011;4092;47.876;9.372;2022-08-19T01:18:18;16.30;;;8.60;;
8098;SDS011;4092;47.876;9.372;2022-08-19T01:20:47;15.97;;;8.67;;
8098;SDS011;4092;47.876;9.372;2022-08-19T01:23:15;14.50;;;8.70;;
8098;SDS011;4092;47.876;9.372;2022-08-19T01:25:44;14.07;;;10.00;;
8098;SDS011;4092;47.876;9.372;2022-08-19T01:28:15;12.67;;;9.20;;
8098;SDS011;4092;47.876;9.372;2022-08-19T01:30:44;16.93;;;8.33;;
8098;SDS011;4092;47.876;9.372;2022-08-19T01:33:12;13.27;;;8.40;;
8098;SDS011;4092;47.876;9.372;2022-08-19T01:35:40;14.77;;;9.50;;
8098;SDS011;4092;47.876;9.372;2022-08-19T01:38:08;15.73;;;8.90;;
8098;SDS011;4092;47.876;9.372;2022-08-19T01:40:38;11.83;;;7.80;;
8098;SDS011;4092;47.876;9.372;2022-08-19T01:43:07;14.83;;;8.47;;
8098;SDS011;4092;47.876;9.372;2022-08-19T01:45:34;14.13;;;8.63;;
8098;SDS011;4092;47.876;9.372;2022-08-19T01:48:03;14.67;;;8.03;;
8098;SDS011;4092;47.876;9.372;2022-08-19T01:50:30;13.90;;;7.63;;
8098;SDS011;4092;47.876;9.372;2022-08-19T01:52:59;14.87;;;8.27;;
8098;SDS011;4092;47.876;9.372;2022-08-19T01:55:27;14.40;;;8.60;;
8098;SDS011;4092;47.876;9.372;2022-08-19T01:57:56;13.37;;;9.47;;
8098;SDS011;4092;47.876;9.372;2022-08-19T02:00:27;17.83;;;9.90;;
8098;SDS011;4092;47.876;9.372;2022-08-19T02:02:56;11.10;;;7.80;;
8098;SDS011;4092;47.876;9.372;2022-08-19T02:05:23;12.80;;;8.37;;
8098;SDS011;4092;47.876;9.372;2022-08-19T02:07:50;14.13;;;7.60;;
8098;SDS011;4092;47.876;9.372;2022-08-19T02:10:18;12.33;;;7.70;;
8098;SDS011;4092;47.876;9.372;2022-08-19T02:12:47;14.80;;;9.03;;
8098;SDS011;4092;47.876;9.372;2022-08-19T02:15:17;13.27;;;9.00;;
8098;SDS011;4092;47.876;9.372;2022-08-19T02:17:45;18.37;;;9.53;;
8098;SDS011;4092;47.876;9.372;2022-08-19T02:20:13;13.20;;;8.47;;
8098;SDS011;4092;47.876;9.372;2022-08-19T02:22:41;14.20;;;8.97;;
8098;SDS011;4092;47.876;9.372;2022-08-19T02:25:09;15.97;;;9.30;;
8098;SDS011;4092;47.876;9.372;2022-08-19T02:27:36;16.20;;;8.40;;
8098;SDS011;4092;47.876;9.372;2022-08-19T02:30:04;15.03;;;8.67;;
8098;SDS011;4092;47.876;9.372;2022-08-19T02:32:34;13.70;;;9.00;;
8098;SDS011;4092;47.876;9.372;2022-08-19T02:35:01;21.40;;;10.67;;
8098;SDS011;4092;47.876;9.372;2022-08-19T02:37:29;16.80;;;10.50;;
8098;SDS011;4092;47.876;9.372;2022-08-19T02:40:13;14.50;;;8.30;;
8098;SDS011;4092;47.876;9.372;2022-08-19T02:42:42;22.07;;;12.07;;
8098;SDS011;4092;47.876;9.372;2022-08-19T02:45:10;17.73;;;8.90;;
8098;SDS011;4092;47.876;9.372;2022-08-19T02:47:39;13.70;;;9.13;;
8098;SDS011;4092;47.876;9.372;2022-08-19T02:50:07;17.87;;;10.20;;
8098;SDS011;4092;47.876;9.372;2022-08-19T02:52:34;14.30;;;9.40;;
8098;SDS011;4092;47.876;9.372;2022-08-19T02:55:02;19.13;;;9.50;;
8098;SDS011;4092;47.876;9.372;2022-08-19T02:57:30;17.83;;;9.97;;
8098;SDS011;4092;47.876;9.372;2022-08-19T02:59:59;15.20;;;9.30;;
8098;SDS011;4092;47.876;9.372;2022-08-19T03:02:26;16.37;;;10.27;;
8098;SDS011;4092;47.876;9.372;2022-08-19T03:04:54;17.10;;;10.30;;
8098;SDS011;4092;47.876;9.372;2022-08-19T03:07:22;13.33;;;8.80;;
8098;SDS011;4092;47.876;9.372;2022-08-19T03:09:49;14.33;;;9.40;;
8098;SDS011;4092;47.876;9.372;2022-08-19T03:12:16;17.40;;;9.67;;
8098;SDS011;4092;47.876;9.372;2022-08-19T03:14:43;17.47;;;10.70;;
8098;SDS011;4092;47.876;9.372;2022-08-19T03:17:11;15.13;;;9.87;;
8098;SDS011;4092;47.876;9.372;2022-08-19T03:19:39;19.07;;;10.90;;
8098;SDS011;4092;47.876;9.372;2022-08-19T03:22:07;20.27;;;10.20;;
8098;SDS011;4092;47.876;9.372;2022-08-19T03:24:34;19.63;;;11.30;;
8098;SDS011;4092;47.876;9.372;2022-08-19T03:27:02;22.07;;;10.67;;
8098;SDS011;4092;47.876;9.372;2022-08-19T03:29:30;16.63;;;10.07;;
8098;SDS011;4092;47.876;9.372;2022-08-19T03:31:58;21.20;;;12.50;;
8098;SDS011;4092;47.876;9.372;2022-08-19T03:34:27;18.20;;;11.70;;
8098;SDS011;4092;47.876;9.372;2022-08-19T03:36:56;17.10;;;10.70;;
8098;SDS011;4092;47.876;9.372;2022-08-19T03:39:29;17.23;;;10.10;;
8098;SDS011;4092;47.876;9.372;2022-08-19T03:41:59;19.50;;;10.07;;
8098;SDS011;4092;47.876;9.372;2022-08-19T03:44:27;16.00;;;9.83;;
8098;SDS011;4092;47.876;9.372;2022-08-19T03:46:57;18.30;;;10.83;;
8098;SDS011;4092;47.876;9.372;2022-08-19T03:49:26;18.33;;;8.87;;
8098;SDS011;4092;47.876;9.372;2022-08-19T03:51:54;18.27;;;9.93;;
8098;SDS011;4092;47.876;9.372;2022-08-19T03:54:23;17.43;;;9.60;;
8098;SDS011;4092;47.876;9.372;2022-08-19T03:56:53;14.20;;;8.57;;
8098;SDS011;4092;47.876;9.372;2022-08-19T03:59:22;15.10;;;8.50;;
8098;SDS011;4092;47.876;9.372;2022-08-19T04:01:51;15.27;;;10.43;;
8098;SDS011;4092;47.876;9.372;2022-08-19T04:04:18;18.07;;;10.00;;
8098;SDS011;4092;47.876;9.372;2022-08-19T04:06:46;17.60;;;10.23;;
8098;SDS011;4092;47.876;9.372;2022-08-19T04:09:14;17.27;;;9.57;;
8098;SDS011;4092;47.876;9.372;2022-08-19T04:11:42;21.13;;;11.00;;
8098;SDS011;4092;47.876;9.372;2022-08-19T04:14:13;21.30;;;10.60;;
8098;SDS011;4092;47.876;9.372;2022-08-19T04:16:42;19.53;;;10.60;;
8098;SDS011;4092;47.876;9.372;2022-08-19T04:19:10;22.50;;;11.20;;
8098;SDS011;4092;47.876;9.372;2022-08-19T04:21:37;16.10;;;9.80;;
8098;SDS011;4092;47.876;9.372;2022-08-19T04:24:05;15.33;;;9.77;;
8098;SDS011;4092;47.876;9.372;2022-08-19T04:26:33;21.63;;;11.10;;
8098;SDS011;4092;47.876;9.372;2022-08-19T04:29:04;19.77;;;10.73;;
8098;SDS011;4092;47.876;9.372;2022-08-19T04:31:33;16.63;;;9.40;;
8098;SDS011;4092;47.876;9.372;2022-08-19T04:34:01;20.50;;;10.43;;
8098;SDS011;4092;47.876;9.372;2022-08-19T04:36:31;22.43;;;11.37;;
8098;SDS011;4092;47.876;9.372;2022-08-19T04:39:02;17.17;;;11.40;;
8098;SDS011;4092;47.876;9.372;2022-08-19T04:41:31;16.70;;;10.50;;
8098;SDS011;4092;47.876;9.372;2022-08-19T04:44:15;22.30;;;10.57;;
8098;SDS011;4092;47.876;9.372;2022-08-19T04:46:45;17.17;;;9.23;;
8098;SDS011;4092;47.876;9.372;2022-08-19T04:49:13;24.33;;;10.67;;
8098;SDS011;4092;47.876;9.372;2022-08-19T04:51:43;17.50;;;11.20;;
8098;SDS011;4092;47.876;9.372;2022-08-19T04:54:12;15.67;;;10.40;;
8098;SDS011;4092;47.876;9.372;2022-08-19T04:56:40;16.57;;;9.77;;
8098;SDS011;4092;47.876;9.372;2022-08-19T04:59:07;16.03;;;10.50;;
8098;SDS011;4092;47.876;9.372;2022-08-19T05:01:36;24.70;;;11.20;;
8098;SDS011;4092;47.876;9.372;2022-08-19T05:04:05;26.13;;;12.27;;
8098;SDS011;4092;47.876;9.372;2022-08-19T05:06:33;18.47;;;10.53;;
8098;SDS011;4092;47.876;9.372;2022-08-19T05:09:01;23.37;;;10.83;;
8098;SDS011;4092;47.876;9.372;2022-08-19T05:11:31;21.80;;;11.17;;
8098;SDS011;4092;47.876;9.372;2022-08-19T05:14:00;16.60;;;10.27;;
8098;SDS011;4092;47.876;9.372;2022-08-19T05:16:27;15.47;;;10.80;;
8098;SDS011;4092;47.876;9.372;2022-08-19T05:18:54;21.73;;;10.50;;
8098;SDS011;4092;47.876;9.372;2022-08-19T05:21:41;20.97;;;11.63;;
8098;SDS011;4092;47.876;9.372;2022-08-19T05:24:27;25.20;;;12.07;;
8098;SDS011;4092;47.876;9.372;2022-08-19T05:26:55;16.03;;;9.50;;
8098;SDS011;4092;47.876;9.372;2022-08-19T05:29:23;18.30;;;10.40;;
8098;SDS011;4092;47.876;9.372;2022-08-19T05:31:52;18.70;;;11.07;;
8098;SDS011;4092;47.876;9.372;2022-08-19T05:34:21;17.10;;;10.63;;
8098;SDS011;4092;47.876;9.372;2022-08-19T05:36:53;17.87;;;9.90;;
8098;SDS011;4092;47.876;9.372;2022-08-19T05:39:22;14.70;;;9.93;;
8098;SDS011;4092;47.876;9.372;2022-08-19T05:41:52;22.73;;;10.67;;
8098;SDS011;4092;47.876;9.372;2022-08-19T05:44:22;21.40;;;11.20;;
8098;SDS011;4092;47.876;9.372;2022-08-19T05:46:50;19.20;;;10.23;;
8098;SDS011;4092;47.876;9.372;2022-08-19T05:49:19;20.30;;;9.67;;
8098;SDS011;4092;47.876;9.372;2022-08-19T05:51:47;18.30;;;10.67;;
8098;SDS011;4092;47.876;9.372;2022-08-19T05:54:16;26.90;;;11.27;;
8098;SDS011;4092;47.876;9.372;2022-08-19T05:56:44;21.50;;;12.37;;
8098;SDS011;4092;47.876;9.372;2022-08-19T05:59:13;23.73;;;11.70;;
8098;SDS011;4092;47.876;9.372;2022-08-19T06:01:43;18.73;;;10.40;;
8098;SDS011;4092;47.876;9.372;2022-08-19T06:04:11;21.40;;;13.33;;
8098;SDS011;4092;47.876;9.372;2022-08-19T06:06:39;20.63;;;10.13;;
8098;SDS011;4092;47.876;9.372;2022-08-19T06:09:07;17.50;;;11.90;;
8098;SDS011;4092;47.876;9.372;2022-08-19T06:11:37;29.60;;;12.43;;
8098;SDS011;4092;47.876;9.372;2022-08-19T06:14:08;19.70;;;12.43;;
8098;SDS011;4092;47.876;9.372;2022-08-19T06:16:37;25.80;;;11.83;;
8098;SDS011;4092;47.876;9.372;2022-08-19T06:19:06;26.50;;;12.10;;
8098;SDS011;4092;47.876;9.372;2022-08-19T06:21:35;21.67;;;11.50;;
8098;SDS011;4092;47.876;9.372;2022-08-19T06:24:04;27.10;;;14.10;;
8098;SDS011;4092;47.876;9.372;2022-08-19T06:26:32;22.40;;;11.80;;
8098;SDS011;4092;47.876;9.372;2022-08-19T06:29:02;23.83;;;12.10;;
8098;SDS011;4092;47.876;9.372;2022-08-19T06:31:31;24.30;;;11.97;;
8098;SDS011;4092;47.876;9.372;2022-08-19T06:33:59;28.90;;;13.43;;
8098;SDS011;4092;47.876;9.372;2022-08-19T06:36:29;18.77;;;10.77;;
8098;SDS011;4092;47.876;9.372;2022-08-19T06:38:59;28.37;;;13.17;;
8098;SDS011;4092;47.876;9.372;2022-08-19T06:41:27;27.70;;;13.50;;
8098;SDS011;4092;47.876;9.372;2022-08-19T06:43:56;24.70;;;13.93;;
8098;SDS011;4092;47.876;9.372;2022-08-19T06:46:25;26.73;;;14.37;;
8098;SDS011;4092;47.876;9.372;2022-08-19T06:48:53;23.67;;;12.87;;
8098;SDS011;4092;47.876;9.372;2022-08-19T06:51:20;24.57;;;14.63;;
8098;SDS011;4092;47.876;9.372;2022-08-19T06:53:49;23.53;;;13.83;;
8098;SDS011;4092;47.876;9.372;2022-08-19T06:56:18;31.70;;;14.97;;
8098;SDS011;4092;47.876;9.372;2022-08-19T06:58:47;21.20;;;14.37;;
8098;SDS011;4092;47.876;9.372;2022-08-19T07:01:16;22.80;;;12.27;;
8098;SDS011;4092;47.876;9.372;2022-08-19T07:03:44;34.20;;;17.23;;
8098;SDS011;4092;47.876;9.372;2022-08-19T07:06:13;21.53;;;11.37;;
8098;SDS011;4092;47.876;9.372;2022-08-19T07:08:43;27.10;;;14.87;;
8098;SDS011;4092;47.876;9.372;2022-08-19T07:11:12;29.90;;;14.53;;
8098;SDS011;4092;47.876;9.372;2022-08-19T07:13:42;28.90;;;15.40;;
8098;SDS011;4092;47.876;9.372;2022-08-19T07:16:11;29.87;;;13.90;;
8098;SDS011;4092;47.876;9.372;2022-08-19T07:18:40;27.13;;;15.20;;
8098;SDS011;4092;47.876;9.372;2022-08-19T07:21:11;29.00;;;13.60;;
8098;SDS011;4092;47.876;9.372;2022-08-19T07:23:41;31.73;;;15.20;;
8098;SDS011;4092;47.876;9.372;2022-08-19T07:26:09;27.13;;;14.27;;
8098;SDS011;4092;47.876;9.372;2022-08-19T07:28:38;27.03;;;13.60;;
8098;SDS011;4092;47.876;9.372;2022-08-19T07:31:05;26.40;;;13.70;;
8098;SDS011;4092;47.876;9.372;2022-08-19T07:33:33;31.30;;;15.20;;
8098;SDS011;4092;47.876;9.372;2022-08-19T07:36:02;23.70;;;14.53;;
8098;SDS011;4092;47.876;9.372;2022-08-19T07:38:32;29.57;;;14.87;;
8098;SDS011;4092;47.876;9.372;2022-08-19T07:41:00;29.23;;;13.60;;
8098;SDS011;4092;47.876;9.372;2022-08-19T07:43:27;29.30;;;15.00;;
8098;SDS011;4092;47.876;9.372;2022-08-19T07:45:54;30.37;;;14.10;;
8098;SDS011;4092;47.876;9.372;2022-08-19T07:48:22;25.73;;;14.17;;
8098;SDS011;4092;47.876;9.372;2022-08-19T07:50:51;25.40;;;13.17;;
8098;SDS011;4092;47.876;9.372;2022-08-19T07:53:19;30.83;;;13.33;;
8098;SDS011;4092;47.876;9.372;2022-08-19T07:55:48;34.87;;;16.60;;
8098;SDS011;4092;47.876;9.372;2022-08-19T07:58:18;26.27;;;14.30;;
8098;SDS011;4092;47.876;9.372;2022-08-19T08:00:47;28.73;;;14.73;;
8098;SDS011;4092;47.876;9.372;2022-08-19T08:03:16;31.03;;;13.23;;
8098;SDS011;4092;47.876;9.372;2022-08-19T08:05:46;38.50;;;16.70;;
8098;SDS011;4092;47.876;9.372;2022-08-19T08:08:30;23.67;;;11.73;;
8098;SDS011;4092;47.876;9.372;2022-08-19T08:11:18;27.30;;;15.17;;
8098;SDS011;4092;47.876;9.372;2022-08-19T08:13:46;37.47;;;15.77;;
8098;SDS011;4092;47.876;9.372;2022-08-19T08:16:14;29.97;;;16.43;;
8098;SDS011;4092;47.876;9.372;2022-08-19T08:18:41;37.57;;;15.23;;
8098;SDS011;4092;47.876;9.372;2022-08-19T08:21:10;31.43;;;17.47;;
8098;SDS011;4092;47.876;9.372;2022-08-19T08:23:37;30.80;;;13.83;;
8098;SDS011;4092;47.876;9.372;2022-08-19T08:26:05;33.93;;;15.83;;
8098;SDS011;4092;47.876;9.372;2022-08-19T08:28:33;33.60;;;15.93;;
8098;SDS011;4092;47.876;9.372;2022-08-19T08:31:02;30.63;;;15.40;;
8098;SDS011;4092;47.876;9.372;2022-08-19T08:33:29;27.90;;;15.37;;
8098;SDS011;4092;47.876;9.372;2022-08-19T08:35:56;37.30;;;15.07;;
8098;SDS011;4092;47.876;9.372;2022-08-19T08:38:23;34.30;;;15.30;;
8098;SDS011;4092;47.876;9.372;2022-08-19T08:40:52;26.90;;;14.17;;
8098;SDS011;4092;47.876;9.372;2022-08-19T08:43:24;30.90;;;14.10;;
8098;SDS011;4092;47.876;9.372;2022-08-19T08:45:59;34.83;;;17.10;;
8098;SDS011;4092;47.876;9.372;2022-08-19T08:48:34;51.97;;;15.60;;
8098;SDS011;4092;47.876;9.372;2022-08-19T08:51:09;25.77;;;14.23;;
8098;SDS011;4092;47.876;9.372;2022-08-19T08:53:39;32.20;;;16.50;;
8098;SDS011;4092;47.876;9.372;2022-08-19T08:56:08;27.70;;;13.90;;
8098;SDS011;4092;47.876;9.372;2022-08-19T08:58:41;35.33;;;15.53;;
8098;SDS011;4092;47.876;9.372;2022-08-19T09:01:15;31.90;;;16.40;;
8098;SDS011;4092;47.876;9.372;2022-08-19T09:03:43;28.40;;;15.03;;
8098;SDS011;4092;47.876;9.372;2022-08-19T09:06:14;33.03;;;15.40;;
8098;SDS011;4092;47.876;9.372;2022-08-19T09:08:52;27.77;;;15.13;;
8098;SDS011;4092;47.876;9.372;2022-08-19T09:11:25;33.73;;;15.37;;
8098;SDS011;4092;47.876;9.372;2022-08-19T09:14:08;32.37;;;16.40;;
8098;SDS011;4092;47.876;9.372;2022-08-19T09:16:44;32.60;;;15.87;;
8098;SDS011;4092;47.876;9.372;2022-08-19T09:19:13;29.10;;;15.10;;
8098;SDS011;4092;47.876;9.372;2022-08-19T09:21:40;36.83;;;15.00;;
8098;SDS011;4092;47.876;9.372;2022-08-19T09:24:07;30.57;;;15.27;;
8098;SDS011;4092;47.876;9.372;2022-08-19T09:26:35;29.43;;;14.23;;
8098;SDS011;4092;47.876;9.372;2022-08-19T09:29:02;28.53;;;14.43;;
8098;SDS011;4092;47.876;9.372;2022-08-19T09:31:31;26.97;;;15.27;;
8098;SDS011;4092;47.876;9.372;2022-08-19T09:34:00;26.60;;;14.30;;
8098;SDS011;4092;47.876;9.372;2022-08-19T09:36:29;29.63;;;15.93;;
8098;SDS011;4092;47.876;9.372;2022-08-19T09:38:59;39.77;;;15.80;;
8098;SDS011;4092;47.876;9.372;2022-08-19T09:41:26;32.93;;;15.17;;
8098;SDS011;4092;47.876;9.372;2022-08-19T09:43:53;31.60;;;14.47;;
8098;SDS011;4092;47.876;9.372;2022-08-19T09:46:22;37.43;;;16.97;;
8098;SDS011;4092;47.876;9.372;2022-08-19T09:48:51;31.67;;;16.80;;
8098;SDS011;4092;47.876;9.372;2022-08-19T09:51:21;26.90;;;14.57;;
8098;SDS011;4092;47.876;9.372;2022-08-19T09:53:51;24.00;;;15.40;;
8098;SDS011;4092;47.876;9.372;2022-08-19T09:56:20;24.67;;;13.47;;
8098;SDS011;4092;47.876;9.372;2022-08-19T09:58:48;31.10;;;14.17;;
8098;SDS011;4092;47.876;9.372;2022-08-19T10:01:17;23.93;;;12.50;;
8098;SDS011;4092;47.876;9.372;2022-08-19T10:03:47;22.60;;;12.27;;
8098;SDS011;4092;47.876;9.372;2022-08-19T10:06:15;28.93;;;13.63;;
8098;SDS011;4092;47.876;9.372;2022-08-19T10:08:44;29.00;;;14.03;;
8098;SDS011;4092;47.876;9.372;2022-08-19T10:11:12;26.90;;;15.43;;
8098;SDS011;4092;47.876;9.372;2022-08-19T10:13:42;28.03;;;14.63;;
8098;SDS011;4092;47.876;9.372;2022-08-19T10:16:11;21.87;;;12.53;;
8098;SDS011;4092;47.876;9.372;2022-08-19T10:18:40;23.90;;;12.03;;
8098;SDS011;4092;47.876;9.372;2022-08-19T10:21:10;22.30;;;12.70;;
8098;SDS011;4092;47.876;9.372;2022-08-19T10:23:39;25.07;;;13.10;;
8098;SDS011;4092;47.876;9.372;2022-08-19T10:26:12;21.83;;;11.13;;
8098;SDS011;4092;47.876;9.372;2022-08-19T10:28:40;22.53;;;11.97;;
8098;SDS011;4092;47.876;9.372;2022-08-19T10:31:09;21.93;;;13.17;;
8098;SDS011;4092;47.876;9.372;2022-08-19T10:33:37;22.13;;;12.93;;
8098;SDS011;4092;47.876;9.372;2022-08-19T10:36:06;24.93;;;13.53;;
8098;SDS011;4092;47.876;9.372;2022-08-19T10:38:36;23.60;;;13.87;;
8098;SDS011;4092;47.876;9.372;2022-08-19T10:41:07;26.73;;;12.83;;
8098;SDS011;4092;47.876;9.372;2022-08-19T10:43:36;24.03;;;13.20;;
8098;SDS011;4092;47.876;9.372;2022-08-19T10:46:05;25.37;;;12.30;;
8098;SDS011;4092;47.876;9.372;2022-08-19T10:48:32;24.13;;;13.57;;
8098;SDS011;4092;47.876;9.372;2022-08-19T10:51:00;21.17;;;11.33;;
8098;SDS011;4092;47.876;9.372;2022-08-19T10:53:45;21.60;;;11.10;;
8098;SDS011;4092;47.876;9.372;2022-08-19T10:56:12;27.47;;;14.07;;
8098;SDS011;4092;47.876;9.372;2022-08-19T10:59:13;22.33;;;12.70;;
8098;SDS011;4092;47.876;9.372;2022-08-19T11:01:42;18.53;;;10.70;;
8098;SDS011;4092;47.876;9.372;2022-08-19T11:04:11;20.77;;;10.70;;
8098;SDS011;4092;47.876;9.372;2022-08-19T11:06:38;17.97;;;10.70;;
8098;SDS011;4092;47.876;9.372;2022-08-19T11:09:08;20.00;;;9.27;;
8098;SDS011;4092;47.876;9.372;2022-08-19T11:11:37;18.27;;;9.77;;
8098;SDS011;4092;47.876;9.372;2022-08-19T11:14:06;16.70;;;10.77;;
8098;SDS011;4092;47.876;9.372;2022-08-19T11:16:34;21.03;;;11.30;;
8098;SDS011;4092;47.876;9.372;2022-08-19T11:19:03;16.60;;;8.97;;
8098;SDS011;4092;47.876;9.372;2022-08-19T11:21:32;12.60;;;8.20;;
8098;SDS011;4092;47.876;9.372;2022-08-19T11:24:01;15.60;;;9.60;;
8098;SDS011;4092;47.876;9.372;2022-08-19T11:26:30;16.47;;;8.93;;
8098;SDS011;4092;47.876;9.372;2022-08-19T11:28:58;17.60;;;11.33;;
8098;SDS011;4092;47.876;9.372;2022-08-19T11:31:29;14.10;;;8.47;;
8098;SDS011;4092;47.876;9.372;2022-08-19T11:33:59;12.97;;;7.93;;
8098;SDS011;4092;47.876;9.372;2022-08-19T11:36:29;13.23;;;8.03;;
8098;SDS011;4092;47.876;9.372;2022-08-19T11:38:57;21.77;;;8.80;;
8098;SDS011;4092;47.876;9.372;2022-08-19T11:41:25;13.73;;;8.30;;
8098;SDS011;4092;47.876;9.372;2022-08-19T11:43:53;13.40;;;8.73;;
8098;SDS011;4092;47.876;9.372;2022-08-19T11:46:21;14.93;;;8.77;;
8098;SDS011;4092;47.876;9.372;2022-08-19T11:48:49;16.70;;;8.07;;
8098;SDS011;4092;47.876;9.372;2022-08-19T11:51:19;11.00;;;5.97;;
8098;SDS011;4092;47.876;9.372;2022-08-19T11:53:49;10.33;;;6.37;;
8098;SDS011;4092;47.876;9.372;2022-08-19T11:56:18;9.30;;;6.10;;
8098;SDS011;4092;47.876;9.372;2022-08-19T11:58:45;12.30;;;6.93;;
8098;SDS011;4092;47.876;9.372;2022-08-19T12:01:14;11.57;;;6.57;;
8098;SDS011;4092;47.876;9.372;2022-08-19T12:03:44;8.93;;;5.97;;
8098;SDS011;4092;47.876;9.372;2022-08-19T12:06:13;9.93;;;6.10;;
8098;SDS011;4092;47.876;9.372;2022-08-19T12:08:44;11.07;;;6.90;;
8098;SDS011;4092;47.876;9.372;2022-08-19T12:11:13;9.10;;;5.20;;
8098;SDS011;4092;47.876;9.372;2022-08-19T12:13:40;10.47;;;6.47;;
8098;SDS011;4092;47.876;9.372;2022-08-19T12:16:12;8.70;;;5.57;;
8098;SDS011;4092;47.876;9.372;2022-08-19T12:18:41;10.17;;;6.03;;
8098;SDS011;4092;47.876;9.372;2022-08-19T12:21:10;8.63;;;6.10;;
8098;SDS011;4092;47.876;9.372;2022-08-19T12:23:39;8.83;;;5.23;;
8098;SDS011;4092;47.876;9.372;2022-08-19T12:26:08;9.93;;;5.90;;
8098;SDS011;4092;47.876;9.372;2022-08-19T12:28:36;9.27;;;6.60;;
8098;SDS011;4092;47.876;9.372;2022-08-19T12:31:03;8.67;;;6.77;;
8098;SDS011;4092;47.876;9.372;2022-08-19T12:33:31;19.83;;;6.67;;
8098;SDS011;4092;47.876;9.372;2022-08-19T12:35:59;9.03;;;6.03;;
8098;SDS011;4092;47.876;9.372;2022-08-19T12:38:28;9.60;;;6.57;;
8098;SDS011;4092;47.876;9.372;2022-08-19T12:40:57;9.97;;;6.47;;
8098;SDS011;4092;47.876;9.372;2022-08-19T12:43:26;12.90;;;7.97;;
8098;SDS011;4092;47.876;9.372;2022-08-19T12:45:55;11.13;;;7.50;;
8098;SDS011;4092;47.876;9.372;2022-08-19T12:48:22;7.57;;;5.20;;
8098;SDS011;4092;47.876;9.372;2022-08-19T12:50:49;10.27;;;6.33;;
8098;SDS011;4092;47.876;9.372;2022-08-19T12:53:16;11.47;;;7.50;;
8098;SDS011;4092;47.876;9.372;2022-08-19T12:55:43;11.03;;;5.67;;
8098;SDS011;4092;47.876;9.372;2022-08-19T12:58:10;11.20;;;6.40;;
8098;SDS011;4092;47.876;9.372;2022-08-19T13:00:39;13.90;;;7.40;;
8098;SDS011;4092;47.876;9.372;2022-08-19T13:03:07;10.73;;;7.70;;
8098;SDS011;4092;47.876;9.372;2022-08-19T13:05:34;8.07;;;5.63;;
8098;SDS011;4092;47.876;9.372;2022-08-19T13:08:01;9.67;;;6.17;;
8098;SDS011;4092;47.876;9.372;2022-08-19T13:10:29;9.37;;;6.13;;
8098;SDS011;4092;47.876;9.372;2022-08-19T13:13:00;13.13;;;6.67;;
8098;SDS011;4092;47.876;9.372;2022-08-19T13:15:30;11.00;;;6.40;;
8098;SDS011;4092;47.876;9.372;2022-08-19T13:18:01;12.60;;;7.53;;
8098;SDS011;4092;47.876;9.372;2022-08-19T13:20:28;10.87;;;7.77;;
8098;SDS011;4092;47.876;9.372;2022-08-19T13:22:56;11.53;;;7.20;;
8098;SDS011;4092;47.876;9.372;2022-08-19T13:25:24;12.30;;;7.50;;
8098;SDS011;4092;47.876;9.372;2022-08-19T13:27:51;12.03;;;7.97;;
8098;SDS011;4092;47.876;9.372;2022-08-19T13:30:20;11.60;;;7.33;;
8098;SDS011;4092;47.876;9.372;2022-08-19T13:33:06;8.73;;;6.30;;
8098;SDS011;4092;47.876;9.372;2022-08-19T13:35:39;12.67;;;6.60;;
8098;SDS011;4092;47.876;9.372;2022-08-19T13:38:07;14.33;;;6.70;;
8098;SDS011;4092;47.876;9.372;2022-08-19T13:40:35;8.37;;;6.60;;
8098;SDS011;4092;47.876;9.372;2022-08-19T13:43:03;11.00;;;7.10;;
8098;SDS011;4092;47.876;9.372;2022-08-19T13:45:32;12.33;;;7.50;;
8098;SDS011;4092;47.876;9.372;2022-08-19T13:48:00;11.23;;;6.80;;
8098;SDS011;4092;47.876;9.372;2022-08-19T13:50:38;9.80;;;6.97;;
8098;SDS011;4092;47.876;9.372;2022-08-19T13:53:07;11.43;;;7.53;;
8098;SDS011;4092;47.876;9.372;2022-08-19T13:55:34;10.90;;;7.53;;
8098;SDS011;4092;47.876;9.372;2022-08-19T13:58:03;12.03;;;6.77;;
8098;SDS011;4092;47.876;9.372;2022-08-19T14:00:31;10.80;;;7.40;;
8098;SDS011;4092;47.876;9.372;2022-08-19T14:03:00;10.90;;;7.53;;
8098;SDS011;4092;47.876;9.372;2022-08-19T14:05:28;10.73;;;7.20;;
8098;SDS011;4092;47.876;9.372;2022-08-19T14:07:57;12.80;;;7.50;;
8098;SDS011;4092;47.876;9.372;2022-08-19T14:10:25;10.90;;;7.03;;
8098;SDS011;4092;47.876;9.372;2022-08-19T14:12:53;10.40;;;7.80;;
8098;SDS011;4092;47.876;9.372;2022-08-19T14:15:23;12.00;;;8.37;;
8098;SDS011;4092;47.876;9.372;2022-08-19T14:17:54;13.33;;;7.40;;
8098;SDS011;4092;47.876;9.372;2022-08-19T14:20:21;11.13;;;7.27;;
8098;SDS011;4092;47.876;9.372;2022-08-19T14:22:49;14.80;;;8.90;;
8098;SDS011;4092;47.876;9.372;2022-08-19T14:25:18;15.90;;;8.90;;
8098;SDS011;4092;47.876;9.372;2022-08-19T14:27:47;11.60;;;7.53;;
8098;SDS011;4092;47.876;9.372;2022-08-19T14:30:16;13.10;;;9.30;;
8098;SDS011;4092;47.876;9.372;2022-08-19T14:32:46;12.33;;;8.70;;
8098;SDS011;4092;47.876;9.372;2022-08-19T14:35:14;14.20;;;10.00;;
8098;SDS011;4092;47.876;9.372;2022-08-19T14:37:43;14.70;;;9.27;;
8098;SDS011;4092;47.876;9.372;2022-08-19T14:40:11;15.20;;;9.23;;
8098;SDS011;4092;47.876;9.372;2022-08-19T14:42:43;17.47;;;10.27;;
8098;SDS011;4092;47.876;9.372;2022-08-19T14:45:11;16.40;;;10.97;;
8098;SDS011;4092;47.876;9.372;2022-08-19T14:47:38;23.70;;;13.17;;
8098;SDS011;4092;47.876;9.372;2022-08-19T14:50:06;23.27;;;14.40;;
8098;SDS011;4092;47.876;9.372;2022-08-19T14:52:34;21.73;;;12.40;;
8098;SDS011;4092;47.876;9.372;2022-08-19T14:55:01;23.80;;;13.20;;
8098;SDS011;4092;47.876;9.372;2022-08-19T14:57:29;27.80;;;14.63;;
8098;SDS011;4092;47.876;9.372;2022-08-19T14:59:58;22.93;;;14.40;;
8098;SDS011;4092;47.876;9.372;2022-08-19T15:02:25;25.43;;;15.60;;
8098;SDS011;4092;47.876;9.372;2022-08-19T15:04:52;24.10;;;14.67;;
8098;SDS011;4092;47.876;9.372;2022-08-19T15:07:20;35.50;;;16.30;;